createdAt,value
2019-06-04T00:02:49.927Z,19.60
2019-06-04T00:07:25.701Z,19.60
2019-06-04T00:12:04.678Z,19.70
2019-06-04T00:16:38.950Z,19.80
2019-06-04T00:21:14.779Z,19.90
2019-06-04T00:25:50.553Z,20.00
2019-06-04T00:30:34.109Z,20.00
2019-06-04T00:35:09.892Z,20.10
2019-06-04T00:39:45.735Z,20.20
2019-06-04T00:44:21.585Z,20.30
2019-06-04T00:48:57.346Z,20.00
2019-06-04T00:53:33.117Z,19.70
2019-06-04T00:58:08.896Z,19.80
2019-06-04T01:02:44.673Z,19.90
2019-06-04T01:07:20.434Z,19.90
2019-06-04T01:11:57.489Z,20.00
2019-06-04T01:16:33.549Z,20.00
2019-06-04T01:21:09.341Z,20.00
2019-06-04T01:25:45.180Z,20.00
2019-06-04T01:30:20.961Z,20.10
2019-06-04T01:34:56.717Z,20.10
2019-06-04T01:39:32.490Z,20.10
2019-06-04T01:44:09.429Z,20.10
2019-06-04T01:48:45.722Z,20.10
2019-06-04T01:53:21.477Z,20.10
2019-06-04T01:57:57.453Z,20.00
2019-06-04T02:02:34.196Z,19.80
2019-06-04T02:07:10.396Z,19.80
2019-06-04T02:11:46.155Z,19.90
2019-06-04T02:16:25.729Z,20.00
2019-06-04T02:20:59.400Z,19.90
2019-06-04T02:25:35.177Z,19.90
2019-06-04T02:30:12.899Z,19.70
2019-06-04T02:34:49.437Z,19.60
2019-06-04T02:39:25.208Z,19.80
2019-06-04T02:44:00.977Z,19.70
2019-06-04T02:48:38.346Z,19.70
2019-06-04T02:53:15.804Z,19.60
2019-06-04T02:57:53.711Z,19.70
2019-06-04T03:02:30.016Z,19.60
2019-06-04T03:07:05.821Z,19.60
2019-06-04T03:11:41.592Z,19.50
2019-06-04T03:16:18.147Z,19.40
2019-06-04T03:20:54.358Z,19.40
2019-06-04T03:25:30.363Z,19.40
2019-06-04T03:30:07.034Z,19.40
2019-06-04T03:34:42.785Z,19.40
2019-06-04T03:39:18.566Z,19.40
2019-06-04T03:43:54.322Z,19.50
2019-06-04T03:48:30.111Z,19.50
2019-06-04T03:53:05.870Z,19.50
2019-06-04T03:57:41.685Z,19.40
2019-06-04T04:02:18.562Z,19.50
2019-06-04T04:06:54.574Z,19.50
2019-06-04T04:11:30.430Z,19.60
2019-06-04T04:16:06.209Z,19.70
2019-06-04T04:20:42.445Z,19.50
2019-06-04T04:25:20.479Z,19.60
2019-06-04T04:29:56.088Z,19.50
2019-06-04T04:34:36.327Z,19.50
2019-06-04T04:39:10.236Z,19.60
2019-06-04T04:43:46.017Z,19.60
2019-06-04T04:48:22.937Z,19.70
2019-06-04T04:52:59.032Z,19.70
2019-06-04T04:57:34.795Z,19.60
2019-06-04T05:02:11.077Z,19.70
2019-06-04T05:06:48.259Z,19.70
2019-06-04T05:11:26.334Z,19.80
2019-06-04T05:16:05.528Z,19.70
2019-06-04T05:20:43.197Z,19.80
2019-06-04T05:25:18.952Z,19.80
2019-06-04T05:29:54.741Z,19.60
2019-06-04T05:34:30.591Z,19.50
2019-06-04T05:39:08.285Z,19.40
2019-06-04T05:43:44.041Z,19.40
2019-06-04T05:48:20.338Z,19.40
2019-06-04T05:52:56.189Z,19.50
2019-06-04T05:57:33.384Z,19.50
2019-06-04T06:02:09.618Z,19.60
2019-06-04T06:06:45.401Z,19.60
2019-06-04T06:11:21.158Z,19.80
2019-06-04T06:15:56.954Z,19.90
2019-06-04T06:20:32.727Z,20.00
2019-06-04T06:25:08.908Z,20.00
2019-06-04T06:29:44.675Z,20.20
2019-06-04T06:34:20.509Z,20.40
2019-06-04T06:38:56.266Z,20.50
2019-06-04T06:43:32.103Z,20.50
2019-06-04T06:48:07.861Z,20.70
2019-06-04T06:52:43.735Z,20.80
2019-06-04T06:57:19.699Z,21.00
2019-06-04T07:01:55.476Z,21.20
2019-06-04T07:06:34.062Z,21.30
2019-06-04T07:11:11.467Z,21.40
2019-06-04T07:15:47.480Z,21.50
2019-06-04T07:20:23.542Z,21.50
2019-06-04T07:24:59.339Z,21.70
2019-06-04T07:29:36.725Z,21.80
2019-06-04T07:34:12.755Z,22.00
2019-06-04T07:38:48.568Z,22.00
2019-06-04T07:43:24.343Z,22.20
2019-06-04T07:48:00.108Z,22.40
2019-06-04T07:52:35.875Z,22.50
2019-06-04T07:57:11.653Z,22.60
2019-06-04T08:02:05.185Z,22.80
2019-06-04T08:06:41.936Z,22.90
2019-06-04T08:11:02.350Z,23.10
2019-06-04T08:15:39.518Z,23.30
2019-06-04T08:20:15.478Z,23.40
2019-06-04T08:24:51.256Z,23.60
2019-06-04T08:29:27.045Z,23.50
2019-06-04T08:34:02.833Z,23.70
2019-06-04T08:38:39.767Z,23.80
2019-06-04T08:43:16.061Z,24.00
2019-06-04T08:47:52.160Z,24.10
2019-06-04T08:52:28.458Z,24.30
2019-06-04T08:57:05.110Z,24.30
2019-06-04T09:01:41.542Z,24.30
2019-06-04T09:06:18.552Z,24.30
2019-06-04T09:10:54.933Z,24.30
2019-06-04T09:15:30.696Z,24.50
2019-06-04T09:20:07.749Z,24.60
2019-06-04T09:24:48.379Z,24.70
2019-06-04T09:29:20.990Z,24.80
2019-06-04T09:33:56.794Z,24.90
2019-06-04T09:38:32.640Z,25.10
2019-06-04T09:43:08.724Z,25.00
2019-06-04T09:47:44.655Z,25.30
2019-06-04T09:52:20.690Z,25.40
2019-06-04T09:56:56.595Z,25.40
2019-06-04T10:01:32.342Z,25.50
2019-06-04T10:06:08.195Z,25.50
2019-06-04T10:10:44.870Z,25.70
2019-06-04T10:15:29.395Z,25.90
2019-06-04T10:20:05.955Z,25.90
2019-06-04T10:24:41.736Z,26.10
2019-06-04T10:29:17.485Z,26.10
2019-06-04T10:33:53.432Z,26.20
2019-06-04T10:38:30.848Z,26.50
2019-06-04T10:43:07.144Z,26.70
2019-06-04T10:47:42.978Z,26.80
2019-06-04T10:52:18.769Z,26.80
2019-06-04T10:56:55.916Z,27.00
2019-06-04T11:01:31.978Z,27.10
2019-06-04T11:06:07.745Z,27.10
2019-06-04T11:10:43.935Z,27.20
2019-06-04T11:15:22.961Z,27.40
2019-06-04T11:19:59.669Z,27.60
2019-06-04T11:24:35.772Z,27.70
2019-06-04T11:29:11.555Z,27.60
2019-06-04T11:33:47.672Z,27.80
2019-06-04T11:38:23.482Z,27.90
2019-06-04T11:43:05.576Z,28.00
2019-06-04T11:47:36.974Z,28.10
2019-06-04T11:52:12.725Z,28.20
2019-06-04T11:56:49.501Z,28.40
2019-06-04T12:01:25.252Z,28.40
2019-06-04T12:06:01.147Z,28.60
2019-06-04T12:10:37.187Z,28.50
2019-06-04T12:15:12.971Z,28.60
2019-06-04T12:19:49.255Z,28.90
2019-06-04T12:24:25.018Z,29.10
2019-06-04T12:29:00.778Z,29.30
2019-06-04T12:33:36.604Z,29.40
2019-06-04T12:38:12.550Z,29.40
2019-06-04T12:42:48.641Z,29.40
2019-06-04T12:47:24.494Z,29.50
2019-06-04T12:52:02.215Z,29.60
2019-06-04T12:56:38.607Z,29.80
2019-06-04T13:01:15.440Z,29.70
2019-06-04T13:05:53.106Z,29.70
2019-06-04T13:10:33.347Z,29.80
2019-06-04T13:15:11.271Z,29.90
2019-06-04T13:19:47.453Z,30.90
2019-06-04T13:24:23.715Z,31.40
2019-06-04T13:29:01.276Z,31.40
2019-06-04T13:33:37.339Z,31.50
2019-06-04T13:38:13.121Z,31.00
2019-06-04T13:42:49.088Z,30.80
2019-06-04T13:47:24.861Z,30.80
2019-06-04T13:52:02.360Z,31.10
2019-06-04T13:56:38.133Z,31.00
2019-06-04T14:01:13.889Z,31.10
2019-06-04T14:05:49.665Z,31.20
2019-06-04T14:10:25.432Z,31.00
2019-06-04T14:15:01.225Z,30.90
2019-06-04T14:19:37.052Z,30.80
2019-06-04T14:24:13.079Z,30.90
2019-06-04T14:28:49.170Z,31.00
2019-06-04T14:33:25.090Z,31.10
2019-06-04T14:38:00.852Z,31.10
2019-06-04T14:42:36.636Z,31.10
2019-06-04T14:47:13.848Z,31.10
2019-06-04T14:51:49.769Z,31.00
2019-06-04T14:56:25.559Z,31.20
2019-06-04T15:01:01.411Z,31.20
2019-06-04T15:05:37.249Z,31.20
2019-06-04T15:10:14.430Z,31.20
2019-06-04T15:14:51.297Z,31.30
2019-06-04T15:19:27.081Z,31.20
2019-06-04T15:24:02.833Z,31.20
2019-06-04T15:28:38.617Z,31.40
2019-06-04T15:33:15.931Z,31.40
2019-06-04T15:37:52.373Z,31.40
2019-06-04T15:42:28.966Z,31.70
2019-06-04T15:47:05.027Z,32.10
2019-06-04T15:51:40.777Z,33.10
2019-06-04T15:56:16.562Z,33.60
2019-06-04T16:00:52.348Z,33.10
2019-06-04T16:05:28.149Z,33.90
2019-06-04T16:10:04.427Z,34.50
2019-06-04T16:14:40.209Z,34.70
2019-06-04T16:19:17.528Z,33.60
2019-06-04T16:23:53.454Z,34.10
2019-06-04T16:28:30.444Z,34.10
2019-06-04T16:33:06.882Z,34.20
2019-06-04T16:37:42.644Z,33.00
2019-06-04T16:42:26.963Z,32.50
2019-06-04T16:46:55.930Z,32.10
2019-06-04T16:51:31.714Z,32.00
2019-06-04T16:56:07.474Z,32.10
2019-06-04T17:00:43.464Z,31.90
2019-06-04T17:05:19.943Z,31.80
2019-06-04T17:09:56.003Z,31.60
2019-06-04T17:14:32.445Z,31.60
2019-06-04T17:19:08.238Z,31.60
2019-06-04T17:23:44.001Z,32.20
2019-06-04T17:28:19.788Z,32.10
2019-06-04T17:32:55.611Z,31.90
2019-06-04T17:37:31.397Z,31.80
2019-06-04T17:42:07.159Z,32.00
2019-06-04T17:46:42.938Z,31.60
2019-06-04T17:51:18.708Z,31.10
2019-06-04T17:55:54.561Z,30.90
2019-06-04T18:00:33.153Z,30.60
2019-06-04T18:05:09.901Z,30.20
2019-06-04T18:09:45.713Z,30.10
2019-06-04T18:14:21.481Z,29.80
2019-06-04T18:18:57.246Z,29.40
2019-06-04T18:23:34.210Z,29.10
2019-06-04T18:28:10.353Z,28.70
2019-06-04T18:32:46.139Z,28.40
2019-06-04T18:37:21.913Z,28.20
2019-06-04T18:41:57.702Z,27.90
2019-06-04T18:46:34.884Z,27.60
2019-06-04T18:51:10.845Z,27.30
2019-06-04T18:55:46.605Z,27.20
2019-06-04T19:00:23.159Z,26.90
2019-06-04T19:04:59.016Z,26.80
2019-06-04T19:09:34.899Z,26.40
2019-06-04T19:14:11.199Z,26.20
2019-06-04T19:18:47.305Z,26.10
2019-06-04T19:23:23.078Z,25.90
2019-06-04T19:27:58.933Z,25.70
2019-06-04T19:32:38.651Z,25.60
2019-06-04T19:37:12.169Z,25.60
2019-06-04T19:41:47.930Z,25.60
2019-06-04T19:46:23.700Z,25.40
2019-06-04T19:50:59.457Z,25.40
2019-06-04T19:55:35.241Z,25.30
2019-06-04T20:00:11.900Z,25.20
2019-06-04T20:04:47.693Z,25.20
2019-06-04T20:09:23.457Z,25.20
2019-06-04T20:13:59.235Z,25.00
2019-06-04T20:18:35.006Z,24.80
2019-06-04T20:23:48.997Z,24.50
2019-06-04T20:28:24.892Z,24.50
2019-06-04T20:33:00.724Z,24.30
2019-06-04T20:37:36.569Z,24.30
2019-06-04T20:42:12.367Z,24.40
2019-06-04T20:46:48.651Z,24.40
2019-06-04T20:51:25.745Z,24.30
2019-06-04T20:56:01.778Z,24.30
2019-06-04T21:00:37.577Z,24.20
2019-06-04T21:05:13.767Z,23.80
2019-06-04T21:09:51.488Z,23.60
2019-06-04T21:14:27.080Z,23.80
2019-06-04T21:19:02.882Z,23.70
2019-06-04T21:23:38.795Z,23.60
2019-06-04T21:28:14.605Z,23.20
2019-06-04T21:32:50.382Z,23.30
2019-06-04T21:37:26.654Z,23.70
2019-06-04T21:42:03.537Z,23.80
2019-06-04T21:46:39.328Z,23.90
2019-06-04T21:51:15.124Z,23.90
2019-06-04T21:55:52.404Z,23.80
2019-06-04T22:00:29.297Z,23.40
2019-06-04T22:05:06.438Z,23.60
2019-06-04T22:09:42.826Z,23.50
2019-06-04T22:14:18.629Z,23.30
2019-06-04T22:18:54.843Z,23.20
2019-06-04T22:23:30.883Z,23.00
2019-06-04T22:28:06.769Z,23.20
2019-06-04T22:32:42.565Z,23.30
2019-06-04T22:37:18.340Z,22.90
2019-06-04T22:41:55.176Z,23.00
2019-06-04T22:46:31.193Z,23.40
2019-06-04T22:51:07.020Z,23.40
2019-06-04T22:55:42.798Z,23.50
2019-06-04T23:00:18.594Z,23.50
2019-06-04T23:04:55.127Z,23.40
2019-06-04T23:09:31.862Z,23.40
2019-06-04T23:14:07.649Z,23.20
2019-06-04T23:18:43.443Z,23.00
2019-06-04T23:23:19.233Z,23.10
2019-06-04T23:27:56.001Z,22.80
2019-06-04T23:32:32.125Z,22.60
2019-06-04T23:37:08.612Z,22.70
2019-06-04T23:41:44.390Z,22.60
2019-06-04T23:46:20.225Z,22.80
2019-06-04T23:50:57.251Z,22.30
2019-06-04T23:55:33.294Z,22.40
